Terminal Aerodrome Forecast
Issued by NWS

Home | Current Version | Previous Version | Text Only | Print | Product List | Glossary On
Versions: 1 2 3 4 5 6 7 8 9 10 11 12 13 14 15 16 17 18 19 20
176
FTUS43 KGRB 241726
TAFAUW
TAF
KAUW 241726Z 2418/2518 02012G18KT 1 1/2SM -SN SCT015 OVC035
      TEMPO 2418/2422 4SM -FZRASN BR BKN015
     FM242200 36014G22KT 2SM -SN OVC015
     FM250200 35014G22KT 3SM -SN OVC015
     FM250900 32012G20KT P6SM -SN SCT015 OVC025 PROB30 2509/2513 4SM
      -SN BKN015
     FM251400 31014G22KT P6SM SCT020 OVC040=

USA.gov is the U.S. government's official web portal to all federal, state and local government web resources and services.